createdAt,value
2023-02-27T00:00:56.375Z,-0.50
2023-02-27T00:03:23.742Z,-0.50
2023-02-27T00:05:50.562Z,-0.50
2023-02-27T00:08:17.406Z,-0.50
2023-02-27T00:10:44.125Z,-0.50
2023-02-27T00:13:10.839Z,-0.50
2023-02-27T00:15:38.485Z,-0.60
2023-02-27T00:18:05.430Z,-0.50
2023-02-27T00:20:37.830Z,-0.50
2023-02-27T00:23:05.836Z,-0.50
2023-02-27T00:25:33.953Z,-0.50
2023-02-27T00:28:01.004Z,-0.60
2023-02-27T00:30:28.042Z,-0.60
2023-02-27T00:32:55.452Z,-0.60
2023-02-27T00:35:22.449Z,-0.60
2023-02-27T00:37:49.123Z,-0.60
2023-02-27T00:40:16.323Z,-0.60
2023-02-27T00:42:43.117Z,-0.60
2023-02-27T00:45:10.809Z,-0.60
2023-02-27T00:47:37.737Z,-0.50
2023-02-27T00:50:04.949Z,-0.50
2023-02-27T00:52:33.589Z,-0.50
2023-02-27T00:55:00.761Z,-0.60
2023-02-27T00:57:28.019Z,-0.60
2023-02-27T00:59:54.739Z,-0.60
2023-02-27T01:02:21.603Z,-0.60
2023-02-27T01:04:48.290Z,-0.60
2023-02-27T01:07:15.052Z,-0.60
2023-02-27T01:09:41.864Z,-0.60
2023-02-27T01:12:08.859Z,-0.60
2023-02-27T01:14:36.150Z,-0.60
2023-02-27T01:17:03.081Z,-0.60
2023-02-27T01:19:31.521Z,-0.50
2023-02-27T01:21:58.301Z,-0.60
2023-02-27T01:24:25.054Z,-0.60
2023-02-27T01:26:52.765Z,-0.60
2023-02-27T01:29:19.474Z,-0.70
2023-02-27T01:31:46.440Z,-0.60
2023-02-27T01:34:13.223Z,-0.60
2023-02-27T01:36:40.614Z,-0.70
2023-02-27T01:39:07.668Z,-0.70
2023-02-27T01:41:34.616Z,-0.60
2023-02-27T01:44:05.197Z,-0.60
2023-02-27T01:46:32.719Z,-0.70
2023-02-27T01:49:08.497Z,-0.60
2023-02-27T01:51:40.072Z,-0.60
2023-02-27T01:54:09.856Z,-0.60
2023-02-27T01:56:36.919Z,-0.60
2023-02-27T01:59:07.434Z,-0.70
2023-02-27T02:01:35.472Z,-0.60
2023-02-27T02:04:27.804Z,-0.70
2023-02-27T02:07:00.397Z,-0.60
2023-02-27T02:09:28.556Z,-0.70
2023-02-27T02:11:57.681Z,-0.70
2023-02-27T02:14:24.348Z,-0.70
2023-02-27T02:17:08.906Z,-0.70
2023-02-27T02:19:48.290Z,-0.80
2023-02-27T02:22:39.088Z,-0.70
2023-02-27T02:25:24.476Z,-0.70
2023-02-27T02:28:21.638Z,-0.70
2023-02-27T02:31:03.816Z,-0.80
2023-02-27T02:33:51.909Z,-0.80
2023-02-27T02:36:39.576Z,-0.90
2023-02-27T02:39:29.900Z,-0.80
2023-02-27T02:42:20.830Z,-0.90
2023-02-27T02:45:01.425Z,-0.90
2023-02-27T02:47:37.020Z,-0.90
2023-02-27T02:50:14.538Z,-0.90
2023-02-27T02:53:04.628Z,-0.90
2023-02-27T02:55:38.287Z,-0.90
2023-02-27T02:58:38.098Z,-0.90
2023-02-27T03:01:13.746Z,-0.90
2023-02-27T03:04:03.549Z,-0.90
2023-02-27T03:06:38.054Z,-1.00
2023-02-27T03:09:12.005Z,-1.00
2023-02-27T03:11:43.911Z,-1.00
2023-02-27T03:14:35.609Z,-1.00
2023-02-27T03:17:09.936Z,-1.00
2023-02-27T03:19:44.941Z,-1.00
2023-02-27T03:22:17.261Z,-1.00
2023-02-27T03:24:53.227Z,-1.00
2023-02-27T03:27:23.169Z,-1.00
2023-02-27T03:29:58.044Z,-1.10
2023-02-27T03:32:39.124Z,-1.10
2023-02-27T03:35:07.332Z,-1.00
2023-02-27T03:37:52.280Z,-1.00
2023-02-27T03:40:25.714Z,-1.00
2023-02-27T03:42:55.961Z,-1.00
2023-02-27T03:46:08.999Z,-1.10
2023-02-27T03:48:36.537Z,-1.10
2023-02-27T03:51:04.203Z,-1.10
2023-02-27T03:53:52.112Z,-1.10
2023-02-27T03:56:25.558Z,-1.20
2023-02-27T03:58:53.397Z,-1.10
2023-02-27T04:01:20.310Z,-1.20
2023-02-27T04:03:54.537Z,-1.20
2023-02-27T04:07:09.044Z,-1.20
2023-02-27T04:10:02.039Z,-1.30
2023-02-27T04:13:06.749Z,-1.30
2023-02-27T04:15:55.093Z,-1.30
2023-02-27T04:18:21.773Z,-1.20
2023-02-27T04:21:17.495Z,-1.30
2023-02-27T04:24:08.190Z,-1.30
2023-02-27T04:26:52.987Z,-1.30
2023-02-27T04:29:43.557Z,-1.40
2023-02-27T04:32:17.814Z,-1.30
2023-02-27T04:35:14.501Z,-1.30
2023-02-27T04:37:56.447Z,-1.30
2023-02-27T04:40:35.428Z,-1.30
2023-02-27T04:43:05.773Z,-1.30
2023-02-27T04:45:35.589Z,-1.30
2023-02-27T04:48:07.291Z,-1.30
2023-02-27T04:50:34.015Z,-1.30
2023-02-27T04:53:16.051Z,-1.30
2023-02-27T04:55:51.633Z,-1.30
2023-02-27T04:58:27.804Z,-1.30
2023-02-27T05:01:01.953Z,-1.30
2023-02-27T05:03:35.408Z,-1.30
2023-02-27T05:06:03.184Z,-1.20
2023-02-27T05:08:55.683Z,-1.30
2023-02-27T05:11:30.056Z,-1.30
2023-02-27T05:14:22.132Z,-1.30
2023-02-27T05:17:08.049Z,-1.30
2023-02-27T05:19:38.560Z,-1.30
2023-02-27T05:22:55.588Z,-1.30
2023-02-27T05:25:59.254Z,-1.40
2023-02-27T05:28:35.177Z,-1.30
2023-02-27T05:31:09.926Z,-1.40
2023-02-27T05:33:44.031Z,-1.50
2023-02-27T05:36:14.204Z,-1.40
2023-02-27T05:38:49.444Z,-1.40
2023-02-27T05:41:25.475Z,-1.50
2023-02-27T05:43:58.542Z,-1.40
2023-02-27T05:46:31.268Z,-1.40
2023-02-27T05:49:11.636Z,-1.40
2023-02-27T05:51:42.450Z,-1.40
2023-02-27T05:54:16.701Z,-1.50
2023-02-27T05:56:46.697Z,-1.50
2023-02-27T05:59:21.964Z,-1.50
2023-02-27T06:01:49.029Z,-1.50
2023-02-27T06:04:15.966Z,-1.50
2023-02-27T06:06:44.292Z,-1.50
2023-02-27T06:09:11.091Z,-1.50
2023-02-27T06:11:37.759Z,-1.50
2023-02-27T06:14:04.539Z,-1.50
2023-02-27T06:16:31.341Z,-1.50
2023-02-27T06:18:58.128Z,-1.60
2023-02-27T06:21:24.851Z,-1.50
2023-02-27T06:23:51.644Z,-1.50
2023-02-27T06:26:18.516Z,-1.50
2023-02-27T06:28:45.367Z,-1.50
2023-02-27T06:31:12.081Z,-1.50
2023-02-27T06:33:38.925Z,-1.50
2023-02-27T06:36:05.930Z,-1.60
2023-02-27T06:38:33.881Z,-1.50
2023-02-27T06:41:00.675Z,-1.50
2023-02-27T06:43:27.418Z,-1.40
2023-02-27T06:45:54.687Z,-1.50
2023-02-27T06:48:21.545Z,-1.40
2023-02-27T06:50:52.799Z,-1.30
2023-02-27T06:53:19.791Z,-1.30
2023-02-27T06:55:46.507Z,-1.30
2023-02-27T06:58:13.284Z,-1.20
2023-02-27T07:00:40.071Z,-1.20
2023-02-27T07:03:07.177Z,-1.10
2023-02-27T07:05:33.938Z,-1.10
2023-02-27T07:08:00.840Z,-1.10
2023-02-27T07:10:27.490Z,-1.10
2023-02-27T07:12:55.195Z,-1.00
2023-02-27T07:15:22.660Z,-0.90
2023-02-27T07:17:49.336Z,-0.80
2023-02-27T07:20:16.080Z,-0.80
2023-02-27T07:22:42.744Z,-0.80
2023-02-27T07:25:10.089Z,-0.70
2023-02-27T07:27:36.988Z,-0.70
2023-02-27T07:30:04.064Z,-0.70
2023-02-27T07:32:30.734Z,-0.60
2023-02-27T07:34:57.377Z,-0.60
2023-02-27T07:37:26.334Z,-0.50
2023-02-27T07:39:54.601Z,-0.40
2023-02-27T07:42:21.447Z,-0.40
2023-02-27T07:44:48.346Z,-0.40
2023-02-27T07:47:15.275Z,-0.40
2023-02-27T07:49:41.941Z,-0.30
2023-02-27T07:52:08.772Z,-0.20
2023-02-27T07:54:38.454Z,-0.20
2023-02-27T07:57:06.092Z,-0.10
2023-02-27T07:59:33.374Z,-0.10
2023-02-27T08:02:00.015Z,0.00
2023-02-27T08:04:26.680Z,0.10
2023-02-27T08:06:53.457Z,0.10
2023-02-27T08:09:20.277Z,0.10
2023-02-27T08:11:48.974Z,0.10
2023-02-27T08:14:16.075Z,0.20
2023-02-27T08:16:42.739Z,0.20
2023-02-27T08:19:09.435Z,0.30
2023-02-27T08:21:36.243Z,0.40
2023-02-27T08:24:03.000Z,0.40
2023-02-27T08:26:31.246Z,0.60
2023-02-27T08:28:58.413Z,0.60
2023-02-27T08:31:25.123Z,0.60
2023-02-27T08:34:01.252Z,0.60
2023-02-27T08:36:36.391Z,0.70
2023-02-27T08:39:03.187Z,0.80
2023-02-27T08:41:30.294Z,0.90
2023-02-27T08:43:56.975Z,1.00
2023-02-27T08:46:23.656Z,1.10
2023-02-27T08:48:50.411Z,1.10
2023-02-27T08:51:17.363Z,1.10
2023-02-27T08:53:44.119Z,1.10
2023-02-27T08:56:10.948Z,1.20
2023-02-27T08:58:37.737Z,1.30
2023-02-27T09:01:04.755Z,1.30
2023-02-27T09:03:31.664Z,1.40
2023-02-27T09:05:58.659Z,1.40
2023-02-27T09:08:25.574Z,1.50
2023-02-27T09:10:57.253Z,1.50
2023-02-27T09:13:23.918Z,1.60
2023-02-27T09:15:50.575Z,1.60
2023-02-27T09:18:17.278Z,1.60
2023-02-27T09:20:44.484Z,1.70
2023-02-27T09:23:11.301Z,1.80
2023-02-27T09:25:38.020Z,1.80
2023-02-27T09:28:04.942Z,1.90
2023-02-27T09:30:31.709Z,2.00
2023-02-27T09:32:58.669Z,2.10
2023-02-27T09:35:25.737Z,1.90
2023-02-27T09:37:52.542Z,1.90
2023-02-27T09:40:29.290Z,1.90
2023-02-27T09:43:03.681Z,2.00
2023-02-27T09:45:36.511Z,2.00
2023-02-27T09:48:32.722Z,2.10
2023-02-27T09:51:00.378Z,2.10
2023-02-27T09:53:31.855Z,2.20
2023-02-27T09:56:15.344Z,2.20
2023-02-27T09:58:45.280Z,2.30
2023-02-27T10:01:23.436Z,2.40
2023-02-27T10:04:08.832Z,2.40
2023-02-27T10:06:37.142Z,2.40
2023-02-27T10:09:31.044Z,2.40
2023-02-27T10:12:07.559Z,2.40
2023-02-27T10:14:55.204Z,2.50
2023-02-27T10:17:34.653Z,2.60
2023-02-27T10:20:08.994Z,2.70
2023-02-27T10:22:41.996Z,2.60
2023-02-27T10:25:30.817Z,2.70
2023-02-27T10:28:09.221Z,2.50
2023-02-27T10:30:36.348Z,2.50
2023-02-27T10:33:15.640Z,2.60
2023-02-27T10:35:45.076Z,2.70
2023-02-27T10:38:17.905Z,2.80
2023-02-27T10:40:46.389Z,2.70
2023-02-27T10:43:19.031Z,2.70
2023-02-27T10:45:45.845Z,2.80
2023-02-27T10:48:14.364Z,2.70
2023-02-27T10:50:44.313Z,2.80
2023-02-27T10:53:19.097Z,2.90
2023-02-27T10:56:00.339Z,2.90
2023-02-27T10:58:35.060Z,2.90
2023-02-27T11:01:08.084Z,3.00
2023-02-27T11:03:40.912Z,3.00
2023-02-27T11:06:26.491Z,3.00
2023-02-27T11:09:13.489Z,3.10
2023-02-27T11:11:40.590Z,3.20
2023-02-27T11:14:28.941Z,3.30
2023-02-27T11:16:58.736Z,3.30
2023-02-27T11:19:35.078Z,3.30
2023-02-27T11:22:18.899Z,3.30
2023-02-27T11:24:47.111Z,3.30
2023-02-27T11:27:29.168Z,3.30
2023-02-27T11:30:23.799Z,3.30
2023-02-27T11:32:51.978Z,3.30
2023-02-27T11:35:37.208Z,3.40
2023-02-27T11:38:17.964Z,3.40
2023-02-27T11:40:58.372Z,3.40
2023-02-27T11:43:29.405Z,3.30
2023-02-27T11:46:12.772Z,3.40
2023-02-27T11:48:54.096Z,3.40
2023-02-27T11:51:48.154Z,3.40
2023-02-27T11:54:45.418Z,3.40
2023-02-27T11:57:24.245Z,3.60
2023-02-27T12:00:16.993Z,3.60
2023-02-27T12:03:13.478Z,3.80
2023-02-27T12:05:44.125Z,3.70
2023-02-27T12:08:17.481Z,3.80
2023-02-27T12:11:12.392Z,3.60
2023-02-27T12:13:43.914Z,3.60
2023-02-27T12:16:16.227Z,3.30
2023-02-27T12:18:55.079Z,3.50
2023-02-27T12:21:25.855Z,3.50
2023-02-27T12:24:10.413Z,3.60
2023-02-27T12:26:41.248Z,3.70
2023-02-27T12:29:28.180Z,3.90
2023-02-27T12:32:16.019Z,4.10
2023-02-27T12:34:52.683Z,4.20
2023-02-27T12:37:30.575Z,4.00
2023-02-27T12:40:00.698Z,3.80
2023-02-27T12:42:33.361Z,3.80
2023-02-27T12:45:26.714Z,3.90
2023-02-27T12:48:26.230Z,3.80
2023-02-27T12:51:17.273Z,3.70
2023-02-27T12:53:43.873Z,3.60
2023-02-27T12:56:17.572Z,3.60
2023-02-27T12:59:11.952Z,3.70
2023-02-27T13:01:49.574Z,3.80
2023-02-27T13:04:28.656Z,3.80
2023-02-27T13:07:10.512Z,3.70
2023-02-27T13:09:37.077Z,3.70
2023-02-27T13:12:34.591Z,3.80
2023-02-27T13:15:29.188Z,3.90
2023-02-27T13:18:10.633Z,4.00
2023-02-27T13:20:45.641Z,4.10
2023-02-27T13:23:37.330Z,4.20
2023-02-27T13:26:13.622Z,4.20
2023-02-27T13:28:40.660Z,4.40
2023-02-27T13:31:13.886Z,4.40
2023-02-27T13:33:53.774Z,4.30
2023-02-27T13:36:21.868Z,4.30
2023-02-27T13:38:53.065Z,4.20
2023-02-27T13:41:28.813Z,3.90
2023-02-27T13:44:01.304Z,4.00
2023-02-27T13:46:30.624Z,4.10
2023-02-27T13:49:09.186Z,3.70
2023-02-27T13:51:36.326Z,3.80
2023-02-27T13:54:19.542Z,3.80
2023-02-27T13:57:11.466Z,3.70
2023-02-27T13:59:41.208Z,3.60
2023-02-27T14:02:10.998Z,3.60
2023-02-27T14:04:50.320Z,3.50
2023-02-27T14:07:24.005Z,3.60
2023-02-27T14:09:59.894Z,3.60
2023-02-27T14:12:44.599Z,3.60
2023-02-27T14:15:18.377Z,3.60
2023-02-27T14:17:47.657Z,3.60
2023-02-27T14:20:19.280Z,3.60
2023-02-27T14:22:46.036Z,3.60
2023-02-27T14:25:25.122Z,3.60
2023-02-27T14:27:57.995Z,3.60
2023-02-27T14:30:51.136Z,3.60
2023-02-27T14:33:39.597Z,3.60
2023-02-27T14:36:22.938Z,3.50
2023-02-27T14:38:51.510Z,3.60
2023-02-27T14:41:18.285Z,3.50
2023-02-27T14:43:55.295Z,3.60
2023-02-27T14:46:41.056Z,3.60
2023-02-27T14:49:21.287Z,3.70
2023-02-27T14:51:48.560Z,3.80
2023-02-27T14:54:16.696Z,3.90
2023-02-27T14:57:05.389Z,3.90
2023-02-27T14:59:41.523Z,3.80
2023-02-27T15:02:25.447Z,3.90
2023-02-27T15:05:15.897Z,3.80
2023-02-27T15:07:47.276Z,3.70
2023-02-27T15:10:30.653Z,3.60
2023-02-27T15:13:01.607Z,3.60
2023-02-27T15:15:28.985Z,3.70
2023-02-27T15:17:56.156Z,3.70
2023-02-27T15:20:24.524Z,3.70
2023-02-27T15:22:51.864Z,3.60
2023-02-27T15:25:38.807Z,3.50
2023-02-27T15:28:23.357Z,3.60
2023-02-27T15:30:51.698Z,3.60
2023-02-27T15:33:28.741Z,3.70
2023-02-27T15:35:56.755Z,3.70
2023-02-27T15:38:34.185Z,3.70
2023-02-27T15:41:02.633Z,3.60
2023-02-27T15:43:30.669Z,3.50
2023-02-27T15:45:58.299Z,3.30
2023-02-27T15:48:25.974Z,3.20
2023-02-27T15:50:57.017Z,3.10
2023-02-27T15:53:30.030Z,3.10
2023-02-27T15:56:04.644Z,3.20
2023-02-27T15:58:33.871Z,3.20
2023-02-27T16:01:11.861Z,3.40
2023-02-27T16:03:46.795Z,3.40
2023-02-27T16:06:32.618Z,3.30
2023-02-27T16:09:17.619Z,3.20
2023-02-27T16:11:44.597Z,3.10
2023-02-27T16:14:56.345Z,3.10
2023-02-27T16:17:25.692Z,3.00
2023-02-27T16:19:53.261Z,3.00
2023-02-27T16:22:21.311Z,3.00
2023-02-27T16:24:49.702Z,3.00
2023-02-27T16:27:24.520Z,3.00
2023-02-27T16:29:53.762Z,3.00
2023-02-27T16:32:24.403Z,3.00
2023-02-27T16:34:51.962Z,2.90
2023-02-27T16:37:33.699Z,2.90
2023-02-27T16:40:00.343Z,2.70
2023-02-27T16:42:27.343Z,2.70
2023-02-27T16:44:54.009Z,2.60
2023-02-27T16:47:20.716Z,2.50
2023-02-27T16:49:49.384Z,2.50
2023-02-27T16:52:16.157Z,2.40
2023-02-27T16:54:42.798Z,2.40
2023-02-27T16:57:09.885Z,2.40
2023-02-27T16:59:40.228Z,2.40
2023-02-27T17:02:16.365Z,2.30
2023-02-27T17:04:44.295Z,2.20
2023-02-27T17:07:15.734Z,2.20
2023-02-27T17:09:46.702Z,2.10
2023-02-27T17:12:13.807Z,2.10
2023-02-27T17:14:40.689Z,2.10
2023-02-27T17:17:07.624Z,2.00
2023-02-27T17:19:34.340Z,2.00
2023-02-27T17:22:00.985Z,2.10
2023-02-27T17:24:27.648Z,2.10
2023-02-27T17:26:54.713Z,2.10
2023-02-27T17:29:22.804Z,2.10
2023-02-27T17:31:49.858Z,2.10
2023-02-27T17:34:16.839Z,2.10
2023-02-27T17:36:43.690Z,2.10
2023-02-27T17:39:14.055Z,2.20
2023-02-27T17:41:41.977Z,2.30
2023-02-27T17:44:11.245Z,2.30
2023-02-27T17:46:38.879Z,2.30
2023-02-27T17:49:05.753Z,2.30
2023-02-27T17:51:33.140Z,2.40
2023-02-27T17:54:06.687Z,2.30
2023-02-27T17:56:36.303Z,2.40
2023-02-27T17:59:03.691Z,2.40
2023-02-27T18:01:30.593Z,2.40
2023-02-27T18:03:57.394Z,2.40
2023-02-27T18:06:24.614Z,2.30
2023-02-27T18:08:51.514Z,2.30
2023-02-27T18:11:19.948Z,2.40
2023-02-27T18:13:48.017Z,2.30
2023-02-27T18:16:15.423Z,2.30
2023-02-27T18:18:43.200Z,2.30
2023-02-27T18:21:15.501Z,2.30
2023-02-27T18:23:43.348Z,2.30
2023-02-27T18:26:28.912Z,2.30
2023-02-27T18:29:06.001Z,2.20
2023-02-27T18:31:35.821Z,2.20
2023-02-27T18:34:02.763Z,2.20
2023-02-27T18:36:30.698Z,2.10
2023-02-27T18:38:58.682Z,2.10
2023-02-27T18:41:26.103Z,2.10
2023-02-27T18:43:52.873Z,2.00
2023-02-27T18:46:20.343Z,2.00
2023-02-27T18:48:47.532Z,2.00
2023-02-27T18:51:16.077Z,1.90
2023-02-27T18:53:46.006Z,1.90
2023-02-27T18:56:15.209Z,1.90
2023-02-27T18:58:43.001Z,1.90
2023-02-27T19:01:25.598Z,1.80
2023-02-27T19:03:53.889Z,1.80
2023-02-27T19:06:20.641Z,1.70
2023-02-27T19:08:47.413Z,1.70
2023-02-27T19:11:22.985Z,1.60
2023-02-27T19:13:49.713Z,1.60
2023-02-27T19:16:16.793Z,1.50
2023-02-27T19:18:43.731Z,1.50
2023-02-27T19:21:10.933Z,1.40
2023-02-27T19:23:38.813Z,1.40
2023-02-27T19:26:05.781Z,1.40
2023-02-27T19:28:33.409Z,1.30
2023-02-27T19:31:00.176Z,1.30
2023-02-27T19:33:26.989Z,1.30
2023-02-27T19:35:54.000Z,1.20
2023-02-27T19:38:20.979Z,1.20
2023-02-27T19:40:47.716Z,1.20
2023-02-27T19:43:15.329Z,1.20
2023-02-27T19:45:42.584Z,1.30
2023-02-27T19:48:11.237Z,1.30
2023-02-27T19:50:40.081Z,1.40
2023-02-27T19:53:07.062Z,1.50
2023-02-27T19:55:33.853Z,1.50
2023-02-27T19:58:01.434Z,1.40
2023-02-27T20:00:28.183Z,1.40
2023-02-27T20:02:54.981Z,1.40
2023-02-27T20:05:21.787Z,1.30
2023-02-27T20:07:48.657Z,1.40
2023-02-27T20:10:15.890Z,1.40
2023-02-27T20:12:42.897Z,1.40
2023-02-27T20:15:12.736Z,1.40
2023-02-27T20:17:41.322Z,1.40
2023-02-27T20:20:09.460Z,1.40
2023-02-27T20:22:38.241Z,1.40
2023-02-27T20:25:05.108Z,1.50
2023-02-27T20:27:34.332Z,1.50
2023-02-27T20:30:01.286Z,1.50
2023-02-27T20:32:28.056Z,1.50
2023-02-27T20:34:55.917Z,1.50
2023-02-27T20:37:22.986Z,1.50
2023-02-27T20:39:49.991Z,1.50
2023-02-27T20:42:16.852Z,1.50
2023-02-27T20:44:43.709Z,1.60
2023-02-27T20:47:10.477Z,1.50
2023-02-27T20:49:37.922Z,1.50
2023-02-27T20:52:04.890Z,1.50
2023-02-27T20:54:31.732Z,1.50
2023-02-27T20:56:58.687Z,1.50
2023-02-27T20:59:25.549Z,1.50
2023-02-27T21:01:53.107Z,1.50
2023-02-27T21:04:47.197Z,1.50
2023-02-27T21:07:17.445Z,1.50
2023-02-27T21:09:44.747Z,1.50
2023-02-27T21:12:12.316Z,1.60
2023-02-27T21:14:39.553Z,1.50
2023-02-27T21:17:06.619Z,1.40
2023-02-27T21:19:33.565Z,1.40
2023-02-27T21:22:00.453Z,1.30
2023-02-27T21:24:27.209Z,1.30
2023-02-27T21:26:54.297Z,1.20
2023-02-27T21:29:21.581Z,1.20
2023-02-27T21:31:49.650Z,1.10
2023-02-27T21:34:20.087Z,1.00
2023-02-27T21:36:47.649Z,1.00
2023-02-27T21:39:23.352Z,0.90
2023-02-27T21:41:50.765Z,0.90
2023-02-27T21:44:19.541Z,0.80
2023-02-27T21:46:46.574Z,0.70
2023-02-27T21:49:20.618Z,0.70
2023-02-27T21:51:47.456Z,0.60
2023-02-27T21:54:15.275Z,0.50
2023-02-27T21:56:43.563Z,0.50
2023-02-27T21:59:11.216Z,0.40
2023-02-27T22:01:38.907Z,0.40
2023-02-27T22:04:06.266Z,0.40
2023-02-27T22:06:34.411Z,0.30
2023-02-27T22:09:05.224Z,0.30
2023-02-27T22:11:33.702Z,0.30
2023-02-27T22:14:00.712Z,0.30
2023-02-27T22:16:27.788Z,0.20
2023-02-27T22:18:54.544Z,0.10
2023-02-27T22:21:25.132Z,0.20
2023-02-27T22:23:52.728Z,0.20
2023-02-27T22:26:22.828Z,0.10
2023-02-27T22:28:49.827Z,0.10
2023-02-27T22:31:22.596Z,0.00
2023-02-27T22:33:52.369Z,0.00
2023-02-27T22:36:22.193Z,-0.10
2023-02-27T22:38:49.727Z,0.00
2023-02-27T22:41:28.758Z,0.00
2023-02-27T22:43:58.400Z,0.00
2023-02-27T22:46:30.969Z,-0.10
2023-02-27T22:49:00.528Z,-0.10
2023-02-27T22:51:28.790Z,-0.10
2023-02-27T22:53:57.645Z,-0.10
2023-02-27T22:56:25.008Z,0.00
2023-02-27T22:58:52.472Z,0.00
2023-02-27T23:01:30.751Z,0.00
2023-02-27T23:04:00.766Z,0.00
2023-02-27T23:06:30.962Z,0.00
2023-02-27T23:08:58.195Z,-0.10
2023-02-27T23:11:25.674Z,-0.10
2023-02-27T23:13:53.414Z,-0.10
2023-02-27T23:16:20.879Z,-0.10
2023-02-27T23:18:52.372Z,-0.10
2023-02-27T23:21:21.656Z,-0.10
2023-02-27T23:23:48.361Z,-0.10
2023-02-27T23:26:15.241Z,-0.10
2023-02-27T23:28:42.723Z,-0.10
2023-02-27T23:31:09.791Z,-0.10
2023-02-27T23:33:36.551Z,-0.10
2023-02-27T23:36:03.871Z,-0.20
2023-02-27T23:38:30.944Z,-0.20
2023-02-27T23:40:57.926Z,-0.20
2023-02-27T23:43:25.050Z,-0.30
2023-02-27T23:45:51.861Z,-0.20
2023-02-27T23:48:21.912Z,-0.20
2023-02-27T23:50:48.862Z,-0.30
2023-02-27T23:53:15.853Z,-0.30
2023-02-27T23:55:43.733Z,-0.30
2023-02-27T23:58:11.384Z,-0.30
